Crow Creek, South Dakota
Current Conditions -  °F | °C
As of 7:15 AM on Friday 28 Nov 2014 (Local Time) from K9V9 Reporting Station
Clear Clear  
Wind Chill: 22°   Ceiling: Unl
Heat Index: 22°   Visibility: 10mi
Dew Point: 19°   Wind: 0mph
Humidity: 87%   Direction: NA
Pressure: 29.75"   Gusts: NA
Location:  44.0664°N, 99.3193°W
Report Text: K9V9 281315Z AUTO 00000KT 10SM CLR M06/M07 A2975 RMK AO2 T10561075
Loading
Personal Weather Stations






























Interactive Weather Map New forecast layout! Learn more

10-Day Weather Forecast

Advertisements
Track Severe Weather on mobile